Time;durP1;ratioP1;P1;durP2;ratioP2;P2;SDS_P1;SDS_P2;PMS_P1;PMS_P2;Temp;Humidity;BMP_temperature;BMP_pressure;BME280_temperature;BME280_humidity;BME280_pressure;Samples;Min_cycle;Max_cycle;Signal;HPM_P1;HPM_P2
2021/01/01 00:00:32;;;;;;;16.75;8.43;;;;;;;4.20;85.07;100138.13;5050342;28;20078;-76
2021/01/01 00:03:00;;;;;;;21.92;9.10;;;;;;;4.22;84.85;100141.41;5065670;28;20024;-76
2021/01/01 00:05:27;;;;;;;21.00;9.45;;;;;;;4.20;84.87;100127.34;5050150;28;20031;-77
2021/01/01 00:07:53;;;;;;;19.83;9.68;;;;;;;4.21;85.15;100131.69;5049077;28;20032;-76
2021/01/01 00:10:19;;;;;;;22.30;12.57;;;;;;;4.22;85.06;100136.00;5050818;28;20021;-76
2021/01/01 00:12:44;;;;;;;20.05;10.55;;;;;;;4.23;85.19;100140.34;5049359;28;20414;-76
2021/01/01 00:15:10;;;;;;;20.30;10.73;;;;;;;4.21;85.28;100131.69;5050736;28;20024;-77
2021/01/01 00:17:35;;;;;;;20.38;9.98;;;;;;;4.19;85.42;100133.81;5047801;28;20040;-79
2021/01/01 00:20:02;;;;;;;18.33;9.07;;;;;;;4.17;85.23;100135.94;5042046;28;20363;-77
2021/01/01 00:22:27;;;;;;;17.10;8.02;;;;;;;4.17;85.48;100138.63;5082057;28;20020;-77
2021/01/01 00:24:52;;;;;;;18.63;9.07;;;;;;;4.17;85.22;100138.63;5048245;28;20029;-76
2021/01/01 00:27:18;;;;;;;16.60;8.95;;;;;;;4.17;85.43;100138.63;5049441;28;20024;-76
2021/01/01 00:29:43;;;;;;;16.70;9.55;;;;;;;4.17;85.35;100135.94;5048889;28;20028;-76
2021/01/01 00:32:08;;;;;;;18.20;8.75;;;;;;;4.19;85.39;100137.31;5049642;28;20371;-76
2021/01/01 00:34:34;;;;;;;17.75;8.50;;;;;;;4.23;85.54;100143.06;5065991;28;20040;-76
2021/01/01 00:37:00;;;;;;;23.58;12.52;;;;;;;4.28;85.59;100145.81;5048054;28;20302;-77
2021/01/01 00:39:25;;;;;;;38.08;19.75;;;;;;;4.27;85.72;100144.19;5054112;28;20371;-76
2021/01/01 00:41:51;;;;;;;36.30;19.88;;;;;;;4.20;85.54;100144.38;5052884;28;20031;-76
2021/01/01 00:44:17;;;;;;;45.67;22.95;;;;;;;4.17;85.71;100141.31;5065171;28;20094;-77
2021/01/01 00:46:42;;;;;;;45.50;23.45;;;;;;;4.14;85.67;100149.91;5050779;28;20033;-77
2021/01/01 00:49:07;;;;;;;47.47;23.48;;;;;;;4.10;85.64;100144.19;5082349;28;20139;-77
2021/01/01 00:51:33;;;;;;;46.33;22.92;;;;;;;4.10;85.32;100143.38;5051760;28;20028;-76
2021/01/01 00:53:58;;;;;;;39.90;22.05;;;;;;;4.11;85.84;100151.22;5052222;28;20406;-76
2021/01/01 00:56:24;;;;;;;41.45;22.75;;;;;;;4.11;85.81;100156.63;5051556;28;20052;-76
2021/01/01 00:58:50;;;;;;;44.90;21.65;;;;;;;4.10;86.03;100159.56;5049998;28;20029;-77
2021/01/01 01:01:26;;;;;;;40.58;20.25;;;;;;;4.10;86.10;100159.56;5049849;28;20078;-76
2021/01/01 01:03:53;;;;;;;36.88;19.77;;;;;;;4.08;86.06;100167.09;5048142;28;20029;-77
2021/01/01 01:06:18;;;;;;;35.97;18.67;;;;;;;4.07;86.12;100163.59;5052013;28;20048;-77
2021/01/01 01:08:44;;;;;;;43.97;21.48;;;;;;;4.07;85.86;100151.97;5052583;28;20045;-77
2021/01/01 01:11:10;;;;;;;48.00;23.27;;;;;;;4.00;85.69;100160.22;5085647;28;20036;-77
2021/01/01 01:13:36;;;;;;;35.63;19.60;;;;;;;3.96;86.24;100170.69;5035539;28;20029;-76
2021/01/01 01:16:01;;;;;;;44.47;20.30;;;;;;;3.93;85.92;100171.19;5069127;28;20078;-77
2021/01/01 01:18:26;;;;;;;37.83;19.13;;;;;;;3.92;85.87;100161.44;5085026;28;20036;-77
2021/01/01 01:20:52;;;;;;;45.65;20.35;;;;;;;3.94;86.26;100175.50;5053600;28;20103;-77
2021/01/01 01:23:18;;;;;;;40.22;20.08;;;;;;;3.96;86.45;100181.47;5053716;28;20032;-77
2021/01/01 01:25:44;;;;;;;39.80;20.15;;;;;;;3.94;86.33;100172.00;5053032;28;20040;-75
2021/01/01 01:28:09;;;;;;;42.13;19.45;;;;;;;3.93;86.00;100178.47;5085838;28;20025;-77
2021/01/01 01:30:35;;;;;;;36.80;18.00;;;;;;;3.90;86.25;100168.97;5051577;28;20086;-77
2021/01/01 01:33:00;;;;;;;40.83;19.88;;;;;;;3.88;86.14;100173.78;5080608;28;20028;-77
2021/01/01 01:35:26;;;;;;;36.35;18.77;;;;;;;3.87;86.29;100182.13;5052208;28;20524;-78
2021/01/01 01:37:51;;;;;;;44.00;20.25;;;;;;;3.83;86.30;100179.09;5073701;28;20059;-78
2021/01/01 01:40:16;;;;;;;38.63;19.60;;;;;;;3.82;86.76;100180.16;5033304;28;20025;-77
2021/01/01 01:42:42;;;;;;;39.20;19.48;;;;;;;3.81;86.46;100178.53;5064650;28;20083;-78
2021/01/01 01:45:08;;;;;;;36.83;17.70;;;;;;;3.77;86.29;100182.78;5051718;28;20054;-78
2021/01/01 01:47:34;;;;;;;34.90;17.30;;;;;;;3.77;86.34;100182.78;5033913;28;20044;-78
2021/01/01 01:50:00;;;;;;;36.42;18.60;;;;;;;3.75;86.68;100190.28;5027184;28;20467;-77
2021/01/01 01:52:26;;;;;;;35.65;17.45;;;;;;;3.71;86.66;100192.66;5026353;28;20045;-78
2021/01/01 01:54:53;;;;;;;39.13;17.73;;;;;;;3.69;86.58;100193.97;5049391;28;20054;-78
2021/01/01 01:57:18;;;;;;;33.35;16.00;;;;;;;3.65;86.90;100190.91;5050301;28;20025;-78
2021/01/01 01:59:44;;;;;;;36.60;19.77;;;;;;;3.62;86.75;100193.28;5046833;28;20033;-78
2021/01/01 02:02:09;;;;;;;40.42;18.02;;;;;;;3.61;87.00;100194.34;5033904;28;20525;-78
2021/01/01 02:04:35;;;;;;;41.45;20.85;;;;;;;3.59;86.95;100197.28;5036561;28;20033;-78
2021/01/01 02:07:00;;;;;;;39.00;18.58;;;;;;;3.58;86.95;100201.03;5035194;28;20247;-79
2021/01/01 02:09:25;;;;;;;39.15;18.40;;;;;;;3.55;86.91;100196.94;5050090;28;20133;-79
2021/01/01 02:11:51;;;;;;;33.47;16.98;;;;;;;3.56;87.24;100203.97;5053375;28;20025;-78
2021/01/01 02:14:17;;;;;;;33.05;17.70;;;;;;;3.56;87.25;100200.47;5032028;28;20467;-78
2021/01/01 02:16:43;;;;;;;32.67;16.92;;;;;;;3.55;86.82;100213.13;5066135;28;20021;-78
2021/01/01 02:19:11;;;;;;;33.13;16.20;;;;;;;3.54;86.95;100210.66;5049889;28;20032;-78
2021/01/01 02:21:39;;;;;;;30.33;16.40;;;;;;;3.52;86.96;100207.41;5051240;28;20402;-77
2021/01/01 02:24:05;;;;;;;27.25;14.65;;;;;;;3.51;87.47;100217.34;5054057;28;20021;-78
2021/01/01 02:26:31;;;;;;;29.40;16.10;;;;;;;3.50;87.18;100210.34;5050784;28;20118;-78
2021/01/01 02:28:56;;;;;;;29.60;15.43;;;;;;;3.49;87.42;100214.09;5051659;28;20032;-78
2021/01/01 02:31:21;;;;;;;32.10;15.88;;;;;;;3.50;87.51;100214.91;5051099;28;20094;-78
2021/01/01 02:33:47;;;;;;;32.83;18.00;;;;;;;3.49;87.44;100214.09;5052790;28;20040;-78
2021/01/01 02:36:12;;;;;;;26.95;15.48;;;;;;;3.49;87.24;100213.25;5051824;28;20029;-78
2021/01/01 02:38:38;;;;;;;28.48;15.65;;;;;;;3.49;87.18;100208.72;5052684;28;20394;-78
2021/01/01 02:41:03;;;;;;;25.60;14.07;;;;;;;3.50;87.64;100210.34;5045574;28;20032;-78
2021/01/01 02:43:29;;;;;;;28.23;15.95;;;;;;;3.49;87.49;100214.09;5043805;28;20078;-78
2021/01/01 02:45:54;;;;;;;26.15;13.48;;;;;;;3.50;87.43;100215.72;5049182;28;20029;-78
2021/01/01 02:48:20;;;;;;;29.02;14.15;;;;;;;3.49;87.57;100214.09;5067187;28;20017;-77
2021/01/01 02:50:45;;;;;;;27.73;14.57;;;;;;;3.50;87.12;100210.34;5034874;28;20033;-78
2021/01/01 02:53:11;;;;;;;26.38;13.85;;;;;;;3.50;87.27;100221.09;5052759;28;20021;-78
2021/01/01 02:55:36;;;;;;;24.40;13.73;;;;;;;3.52;87.14;100218.19;5051771;28;20509;-78
2021/01/01 02:58:02;;;;;;;23.90;14.20;;;;;;;3.52;87.36;100219.00;5083753;28;20488;-78
2021/01/01 03:00:29;;;;;;;27.92;14.57;;;;;;;3.51;87.40;100217.34;5047962;28;20032;-77
2021/01/01 03:02:55;;;;;;;27.90;15.35;;;;;;;3.51;87.51;100221.91;5050240;28;20378;-77
2021/01/01 03:05:20;;;;;;;26.73;13.50;;;;;;;3.50;87.72;100226.50;5052801;28;20028;-77
2021/01/01 03:07:45;;;;;;;26.02;14.23;;;;;;;3.50;87.31;100223.00;5052101;28;20032;-77
2021/01/01 03:10:11;;;;;;;26.73;14.63;;;;;;;3.48;87.56;100220.53;5042361;28;20501;-77
2021/01/01 03:12:36;;;;;;;24.23;13.18;;;;;;;3.47;87.37;100224.28;5052957;28;20421;-79
2021/01/01 03:15:04;;;;;;;27.23;14.38;;;;;;;3.46;87.56;100222.63;5051685;28;20037;-77
2021/01/01 03:17:29;;;;;;;25.23;13.85;;;;;;;3.46;87.57;100219.13;5034269;28;20501;-77
2021/01/01 03:19:54;;;;;;;26.75;14.38;;;;;;;3.42;87.44;100229.56;5050575;28;20082;-77
2021/01/01 03:22:20;;;;;;;20.92;13.43;;;;;;;3.40;87.33;100226.31;5051785;28;20036;-78
2021/01/01 03:24:45;;;;;;;23.67;12.57;;;;;;;3.37;87.23;100221.41;5043516;28;20395;-78
2021/01/01 03:27:10;;;;;;;22.48;12.50;;;;;;;3.36;87.82;100219.78;5050411;28;20071;-78
2021/01/01 03:29:36;;;;;;;28.92;13.70;;;;;;;3.35;87.89;100218.09;5052432;28;20029;-78
2021/01/01 03:32:01;;;;;;;24.05;13.55;;;;;;;3.33;87.64;100221.06;5045289;28;20029;-78
2021/01/01 03:34:26;;;;;;;22.48;12.40;;;;;;;3.32;87.08;100216.72;5052595;28;20059;-78
2021/01/01 03:36:54;;;;;;;24.63;12.77;;;;;;;3.31;87.47;100219.66;5051895;28;20028;-78
2021/01/01 03:39:19;;;;;;;25.35;13.65;;;;;;;3.29;87.87;100216.38;5051100;28;20032;-78
2021/01/01 03:41:45;;;;;;;25.20;12.55;;;;;;;3.27;87.82;100218.50;5050079;28;20434;-78
2021/01/01 03:44:11;;;;;;;22.83;11.75;;;;;;;3.25;87.26;100223.31;5048390;28;20025;-78
2021/01/01 03:46:36;;;;;;;21.80;11.13;;;;;;;3.22;87.80;100219.22;5043313;28;20402;-77
2021/01/01 03:49:01;;;;;;;19.35;11.60;;;;;;;3.21;87.98;100222.16;5051005;28;20078;-78
2021/01/01 03:51:27;;;;;;;23.08;11.20;;;;;;;3.23;87.85;100220.03;5042171;28;20029;-78
2021/01/01 03:53:52;;;;;;;19.98;12.30;;;;;;;3.21;87.53;100222.97;5050467;28;20075;-78
2021/01/01 03:56:17;;;;;;;20.02;10.70;;;;;;;3.19;87.54;100216.19;5050411;28;20029;-78
2021/01/01 03:58:43;;;;;;;21.75;11.25;;;;;;;3.15;87.92;100223.13;5052124;28;20036;-78
2021/01/01 04:01:08;;;;;;;20.45;11.50;;;;;;;3.10;87.36;100215.75;5051097;28;20025;-78
2021/01/01 04:03:34;;;;;;;21.80;11.52;;;;;;;3.06;87.64;100215.41;5051742;28;20090;-78
2021/01/01 04:05:59;;;;;;;19.38;11.27;;;;;;;3.03;87.55;100210.50;5050708;28;20037;-78
2021/01/01 04:08:24;;;;;;;16.88;9.98;;;;;;;2.98;87.63;100215.78;5051297;28;20032;-78
2021/01/01 04:10:50;;;;;;;19.88;11.43;;;;;;;2.96;87.89;100211.69;5050247;28;20035;-76
2021/01/01 04:13:15;;;;;;;23.98;13.32;;;;;;;2.93;88.04;100206.78;5044002;28;20056;-77
2021/01/01 04:15:41;;;;;;;18.92;10.27;;;;;;;2.95;87.68;100208.19;5051157;28;20091;-77
2021/01/01 04:18:06;;;;;;;18.08;10.30;;;;;;;2.93;88.06;100209.47;5050420;28;20055;-78
2021/01/01 04:20:32;;;;;;;17.30;9.85;;;;;;;2.97;87.99;100211.44;5041551;28;20071;-77
2021/01/01 04:22:57;;;;;;;17.55;9.77;;;;;;;2.99;87.72;100209.31;5054354;28;20037;-78
2021/01/01 04:25:23;;;;;;;17.52;9.60;;;;;;;3.04;87.64;100212.13;5052758;28;20378;-77
2021/01/01 04:27:48;;;;;;;18.92;10.25;;;;;;;3.07;87.79;100211.66;5050023;28;20039;-78
2021/01/01 04:30:14;;;;;;;19.92;11.20;;;;;;;3.10;87.76;100213.84;5051131;28;20021;-78
2021/01/01 04:32:40;;;;;;;17.63;10.30;;;;;;;3.15;87.81;100217.72;5049662;28;20033;-78
2021/01/01 04:35:06;;;;;;;19.85;10.40;;;;;;;3.14;87.76;100214.22;5066709;28;20041;-77
2021/01/01 04:37:31;;;;;;;21.08;11.00;;;;;;;3.15;87.51;100217.72;5049344;28;20040;-77
2021/01/01 04:39:56;;;;;;;18.17;10.65;;;;;;;3.10;87.51;100215.75;5033112;28;20025;-78
2021/01/01 04:42:22;;;;;;;22.75;11.00;;;;;;;3.04;87.83;100212.13;5051344;28;20165;-77
2021/01/01 04:44:47;;;;;;;22.67;10.20;;;;;;;2.98;87.56;100214.97;5050868;28;20020;-78
2021/01/01 04:47:13;;;;;;;17.48;10.30;;;;;;;2.91;87.94;100222.34;5050751;28;20029;-78
2021/01/01 04:49:38;;;;;;;20.98;10.15;;;;;;;2.84;87.95;100223.28;5033072;28;20510;-78
2021/01/01 04:52:04;;;;;;;19.60;9.88;;;;;;;2.78;88.33;100213.47;5051416;28;20120;-78
2021/01/01 04:54:33;;;;;;;18.98;9.68;;;;;;;2.74;88.00;100222.25;5064603;28;20040;-78
2021/01/01 04:56:58;;;;;;;18.48;10.43;;;;;;;2.69;87.73;100214.88;5054805;28;20363;-77
2021/01/01 04:59:24;;;;;;;18.40;9.50;;;;;;;2.64;88.24;100223.66;5066092;28;20017;-77
2021/01/01 05:01:49;;;;;;;17.15;9.85;;;;;;;2.60;87.70;100222.50;5050058;28;20493;-78
2021/01/01 05:04:15;;;;;;;16.98;9.27;;;;;;;2.56;88.04;100223.19;5051757;28;20028;-78
2021/01/01 05:06:41;;;;;;;15.35;9.00;;;;;;;2.52;87.87;100224.72;5049575;28;20029;-78
2021/01/01 05:09:06;;;;;;;17.40;8.73;;;;;;;2.48;88.62;100228.91;5032530;28;20470;-78
2021/01/01 05:11:32;;;;;;;16.38;9.23;;;;;;;2.44;87.75;100231.28;5047001;28;20032;-78
2021/01/01 05:13:58;;;;;;;18.75;8.90;;;;;;;2.39;88.05;100228.47;5048879;28;20028;-78
2021/01/01 05:16:23;;;;;;;16.92;8.55;;;;;;;2.37;88.07;100235.94;5064998;28;20075;-79
2021/01/01 05:18:49;;;;;;;16.45;8.32;;;;;;;2.36;88.56;100234.31;5048680;28;20033;-78
2021/01/01 05:21:24;;;;;;;16.15;8.85;;;;;;;2.33;87.97;100237.47;5045556;28;20029;-78
2021/01/01 05:23:50;;;;;;;16.55;9.10;;;;;;;2.30;88.37;100238.75;5051658;28;20029;-78
2021/01/01 05:26:16;;;;;;;14.77;8.52;;;;;;;2.27;88.54;100239.22;5051413;28;20033;-78
2021/01/01 05:28:44;;;;;;;16.83;9.07;;;;;;;2.25;88.62;100240.50;5077724;28;20167;-78
2021/01/01 05:31:13;;;;;;;19.38;10.43;;;;;;;2.22;88.00;100247.97;5049825;28;20033;-78
2021/01/01 05:33:40;;;;;;;19.52;11.23;;;;;;;2.20;88.75;100243.88;5054043;28;20039;-78
2021/01/01 05:36:07;;;;;;;16.58;9.10;;;;;;;2.19;88.10;100251.13;5033250;28;20045;-77
2021/01/01 05:38:33;;;;;;;19.60;10.90;;;;;;;2.18;88.46;100251.34;5051586;28;20032;-77
2021/01/01 05:40:59;;;;;;;17.15;9.50;;;;;;;2.17;88.47;100250.53;5016214;28;20393;-77
2021/01/01 05:43:24;;;;;;;19.48;8.73;;;;;;;2.15;88.55;100247.25;5052398;28;20025;-77
2021/01/01 05:45:50;;;;;;;20.48;10.35;;;;;;;2.17;88.25;100255.09;5054754;28;20029;-77
2021/01/01 05:48:17;;;;;;;20.52;10.65;;;;;;;2.17;88.56;100250.53;5054032;28;20478;-77
2021/01/01 05:50:42;;;;;;;20.17;10.02;;;;;;;2.15;88.41;100247.25;5048594;28;20115;-77
2021/01/01 05:53:18;;;;;;;18.98;9.52;;;;;;;2.13;88.51;100249.38;5051620;28;20490;-77
2021/01/01 05:55:45;;;;;;;18.27;8.77;;;;;;;2.15;88.40;100251.81;5051905;28;20121;-78
2021/01/01 05:58:25;;;;;;;17.40;8.82;;;;;;;2.14;88.88;100261.75;5035228;28;20451;-77
2021/01/01 06:00:54;;;;;;;14.85;8.25;;;;;;;2.14;88.52;100253.69;5050523;28;20087;-77
2021/01/01 06:03:21;;;;;;;14.95;6.80;;;;;;;2.17;88.05;100261.28;5035952;28;20024;-77
2021/01/01 06:05:56;;;;;;;13.73;6.88;;;;;;;2.20;88.82;100258.13;5036995;28;20490;-78
2021/01/01 06:08:26;;;;;;;16.58;7.72;;;;;;;2.25;88.72;100264.72;5052239;28;20063;-78
2021/01/01 06:10:52;;;;;;;14.00;7.93;;;;;;;2.30;88.83;100264.84;5051985;28;20025;-78
2021/01/01 06:13:18;;;;;;;12.20;7.28;;;;;;;2.33;88.31;100259.00;5053301;28;20025;-77
2021/01/01 06:15:44;;;;;;;11.30;6.10;;;;;;;2.38;88.28;100267.19;5054257;28;20025;-77
2021/01/01 06:18:09;;;;;;;11.55;6.30;;;;;;;2.44;88.83;100266.25;5035873;28;20343;-77
2021/01/01 06:20:34;;;;;;;13.27;6.47;;;;;;;2.50;88.70;100265.31;5036305;28;20120;-77
2021/01/01 06:23:01;;;;;;;14.85;7.20;;;;;;;2.55;88.50;100265.44;5034196;28;20054;-78
2021/01/01 06:25:27;;;;;;;13.25;7.22;;;;;;;2.59;88.86;100268.47;5049766;28;20029;-77
2021/01/01 06:27:52;;;;;;;11.98;6.32;;;;;;;2.62;88.19;100268.03;5050482;28;20048;-76
2021/01/01 06:30:18;;;;;;;12.05;7.00;;;;;;;2.63;88.78;100275.84;5052572;28;20028;-77
2021/01/01 06:32:43;;;;;;;14.23;6.43;;;;;;;2.64;88.60;100277.47;5035869;28;20044;-77
2021/01/01 06:35:16;;;;;;;10.98;6.03;;;;;;;2.65;88.44;100284.50;5034543;28;20052;-77
2021/01/01 06:37:48;;;;;;;11.25;6.88;;;;;;;2.66;88.45;100280.75;5052019;28;20021;-77
2021/01/01 06:40:20;;;;;;;9.52;5.70;;;;;;;2.70;89.04;100274.91;5017943;28;20155;-78
2021/01/01 06:42:48;;;;;;;10.82;6.55;;;;;;;2.71;88.47;100276.56;5053147;28;20095;-78
2021/01/01 06:45:41;;;;;;;10.57;6.07;;;;;;;2.73;88.66;100286.03;5056675;28;20083;-78
2021/01/01 06:48:18;;;;;;;12.60;6.85;;;;;;;2.75;88.83;100288.47;5072236;28;20043;-77
2021/01/01 06:50:44;;;;;;;10.05;6.32;;;;;;;2.78;88.89;100288.84;5052816;28;20025;-78
2021/01/01 06:53:13;;;;;;;11.25;6.30;;;;;;;2.81;88.43;100287.53;5051284;28;20025;-78
2021/01/01 06:55:43;;;;;;;11.75;6.45;;;;;;;2.83;88.74;100280.06;5050098;28;20063;-77
2021/01/01 06:58:09;;;;;;;13.88;6.80;;;;;;;2.85;88.84;100292.22;5051074;28;20029;-78
2021/01/01 07:00:49;;;;;;;13.45;7.03;;;;;;;2.88;88.98;100293.63;5052115;28;20025;-78
2021/01/01 07:03:27;;;;;;;15.02;7.18;;;;;;;2.91;89.12;100298.53;5048413;28;20025;-78
2021/01/01 07:06:01;;;;;;;12.65;6.72;;;;;;;2.93;88.56;100299.13;5049932;28;20021;-77
2021/01/01 07:08:39;;;;;;;13.88;7.20;;;;;;;2.93;88.46;100304.50;5048973;28;20025;-78
2021/01/01 07:11:07;;;;;;;12.40;6.80;;;;;;;2.92;88.63;100304.75;5041777;28;20032;-78
2021/01/01 07:13:54;;;;;;;15.40;7.57;;;;;;;2.89;88.91;100306.03;5052220;28;20324;-78
2021/01/01 07:16:20;;;;;;;14.55;8.57;;;;;;;2.87;88.51;100313.53;5077182;28;20056;-78
2021/01/01 07:18:46;;;;;;;13.65;7.53;;;;;;;2.86;88.96;100322.66;5048644;28;20095;-77
2021/01/01 07:21:15;;;;;;;11.30;6.18;;;;;;;2.85;88.32;100312.94;5060700;28;20025;-77
2021/01/01 07:23:41;;;;;;;12.32;6.68;;;;;;;2.85;88.85;100315.63;5049413;28;20033;-78
2021/01/01 07:26:07;;;;;;;12.57;7.30;;;;;;;2.84;88.58;100314.00;5051684;28;20075;-77
2021/01/01 07:28:32;;;;;;;10.75;7.00;;;;;;;2.85;88.68;100323.72;5049110;28;20104;-78
2021/01/01 07:30:58;;;;;;;13.70;7.50;;;;;;;2.85;89.11;100321.03;5051377;28;20024;-78
2021/01/01 07:33:30;;;;;;;11.80;6.40;;;;;;;2.85;88.94;100321.84;5050591;28;20025;-77
2021/01/01 07:35:57;;;;;;;12.60;7.15;;;;;;;2.86;88.57;100328.03;5051146;28;20391;-78
2021/01/01 07:38:23;;;;;;;12.73;7.32;;;;;;;2.85;89.24;100324.53;5041580;28;20029;-78
2021/01/01 07:40:49;;;;;;;9.50;6.03;;;;;;;2.86;88.86;100325.34;5062594;28;20040;-78
2021/01/01 07:43:14;;;;;;;12.18;6.13;;;;;;;2.87;88.90;100327.81;5029754;28;20049;-77
2021/01/01 07:45:40;;;;;;;11.43;6.60;;;;;;;2.86;88.55;100328.03;5051423;28;20029;-77
2021/01/01 07:48:06;;;;;;;17.77;7.40;;;;;;;2.88;89.08;100336.69;5046721;28;20471;-77
2021/01/01 07:50:31;;;;;;;12.43;6.80;;;;;;;2.87;88.72;100335.06;5084712;28;20017;-77
2021/01/01 07:53:04;;;;;;;12.10;7.18;;;;;;;2.88;88.76;100337.53;5081843;28;20092;-78
2021/01/01 07:55:30;;;;;;;13.07;7.30;;;;;;;2.89;88.97;100343.72;5034077;28;20056;-77
2021/01/01 07:58:06;;;;;;;13.65;7.03;;;;;;;2.89;88.52;100343.72;5032917;28;20082;-78
2021/01/01 08:00:32;;;;;;;14.77;8.05;;;;;;;2.90;88.69;100348.06;5044188;28;20041;-77
2021/01/01 08:02:59;;;;;;;13.75;7.68;;;;;;;2.89;89.10;100349.94;5043408;28;20387;-77
2021/01/01 08:05:24;;;;;;;14.35;7.55;;;;;;;2.92;88.83;100355.91;5048113;28;20040;-77
2021/01/01 08:07:49;;;;;;;14.10;7.75;;;;;;;2.90;88.82;100353.44;5043806;28;20033;-77
2021/01/01 08:10:15;;;;;;;14.05;7.43;;;;;;;2.92;88.86;100353.19;5051903;28;20528;-77
2021/01/01 08:12:49;;;;;;;12.43;7.05;;;;;;;2.91;89.11;100349.69;5052982;28;20087;-77
2021/01/01 08:15:26;;;;;;;12.30;6.90;;;;;;;2.91;88.78;100352.38;5049810;28;20039;-77
2021/01/01 08:17:52;;;;;;;13.55;7.97;;;;;;;2.92;88.47;100351.34;5047285;28;20033;-77
2021/01/01 08:20:17;;;;;;;12.32;7.47;;;;;;;2.92;88.94;100359.44;5050396;28;20025;-78
2021/01/01 08:22:42;;;;;;;13.32;6.90;;;;;;;2.93;88.58;100361.06;5050112;28;20037;-77
2021/01/01 08:25:09;;;;;;;14.23;7.10;;;;;;;2.93;89.04;100354.84;5032927;28;20470;-78
2021/01/01 08:27:34;;;;;;;12.02;6.10;;;;;;;2.94;88.81;100367.25;5053828;28;20056;-77
2021/01/01 08:30:00;;;;;;;13.02;7.35;;;;;;;2.95;89.17;100367.03;5047947;28;20381;-77
2021/01/01 08:32:25;;;;;;;14.77;6.82;;;;;;;2.95;88.99;100371.59;5048386;28;20032;-78
2021/01/01 08:34:51;;;;;;;14.32;7.43;;;;;;;2.96;88.69;100365.97;5042518;28;20040;-77
2021/01/01 08:37:20;;;;;;;14.52;6.97;;;;;;;2.96;89.03;100376.75;5048272;28;20119;-77
2021/01/01 08:39:45;;;;;;;14.27;8.48;;;;;;;2.96;88.88;100371.34;5049448;28;20029;-77
2021/01/01 08:42:21;;;;;;;12.02;7.43;;;;;;;2.96;89.21;100379.44;5048297;28;20029;-78
2021/01/01 08:44:47;;;;;;;11.35;7.15;;;;;;;2.98;88.65;100381.91;5081936;28;20060;-78
2021/01/01 08:47:12;;;;;;;13.55;8.32;;;;;;;2.98;88.85;100377.34;5049043;28;20025;-78
2021/01/01 08:49:37;;;;;;;14.10;7.10;;;;;;;2.98;88.85;100374.66;5082363;28;20099;-78
2021/01/01 08:52:10;;;;;;;14.05;8.02;;;;;;;2.99;88.73;100380.84;5049327;28;20031;-78
2021/01/01 08:54:36;;;;;;;13.63;8.10;;;;;;;2.99;89.04;100387.03;5053280;28;20496;-77
2021/01/01 08:57:01;;;;;;;14.40;8.82;;;;;;;2.99;89.05;100387.03;5049036;28;20033;-78
2021/01/01 08:59:27;;;;;;;14.30;7.78;;;;;;;2.99;88.81;100391.63;5051203;28;20497;-78
2021/01/01 09:01:55;;;;;;;15.23;8.23;;;;;;;3.00;88.89;100387.84;5054155;28;20063;-78
2021/01/01 09:04:25;;;;;;;12.20;7.65;;;;;;;3.00;88.56;100387.84;5083500;28;20112;-78
2021/01/01 09:06:54;;;;;;;14.23;7.47;;;;;;;3.00;88.42;100394.09;5051746;28;20108;-78
2021/01/01 09:09:27;;;;;;;15.90;7.72;;;;;;;3.01;88.70;100395.72;5053875;28;20013;-77
2021/01/01 09:12:10;;;;;;;13.05;7.40;;;;;;;3.03;89.04;100395.50;5068748;28;20067;-78
2021/01/01 09:14:45;;;;;;;14.95;7.72;;;;;;;3.03;88.68;100396.31;5078095;28;20075;-78
2021/01/01 09:17:10;;;;;;;13.77;7.28;;;;;;;3.04;89.07;100394.44;5053781;28;20021;-78
2021/01/01 09:19:36;;;;;;;13.38;7.70;;;;;;;3.05;88.65;100402.25;5040628;28;20052;-79
2021/01/01 09:22:18;;;;;;;13.90;7.90;;;;;;;3.04;88.46;100403.31;5084318;28;20021;-78
2021/01/01 09:24:47;;;;;;;11.80;7.22;;;;;;;3.03;88.77;100401.69;5040023;28;20036;-78
2021/01/01 09:27:13;;;;;;;13.77;7.88;;;;;;;3.00;88.79;100409.41;5052952;28;20116;-77
2021/01/01 09:29:39;;;;;;;14.32;8.27;;;;;;;2.98;88.62;100404.25;5051006;28;20033;-77
2021/01/01 09:32:08;;;;;;;13.40;8.27;;;;;;;2.94;88.42;100408.47;5048102;28;20071;-77
2021/01/01 09:34:33;;;;;;;13.57;7.63;;;;;;;2.92;88.28;100405.19;5034511;28;20039;-79
2021/01/01 09:37:08;;;;;;;13.48;7.75;;;;;;;2.91;88.56;100408.94;5052332;28;20032;-78
2021/01/01 09:39:33;;;;;;;12.05;7.70;;;;;;;2.89;88.86;100409.19;5051890;28;20028;-77
2021/01/01 09:41:59;;;;;;;12.23;7.20;;;;;;;2.88;88.55;100409.41;5051493;28;20029;-78
2021/01/01 09:44:24;;;;;;;13.63;7.70;;;;;;;2.89;88.78;100413.72;5066662;28;20025;-77
2021/01/01 09:46:49;;;;;;;13.98;7.68;;;;;;;2.88;88.34;100409.41;5052762;28;20086;-77
2021/01/01 09:49:15;;;;;;;14.30;7.30;;;;;;;2.89;88.89;100416.41;5052946;28;20021;-78
2021/01/01 09:51:40;;;;;;;23.92;7.55;;;;;;;2.87;88.87;100410.47;5049084;28;20059;-76
2021/01/01 09:54:06;;;;;;;15.05;7.10;;;;;;;2.87;88.31;100415.84;5050552;28;20033;-78
2021/01/01 09:56:35;;;;;;;12.27;6.90;;;;;;;2.86;88.80;100409.66;5050431;28;20021;-78
2021/01/01 09:59:00;;;;;;;14.20;7.30;;;;;;;2.85;88.74;100415.25;5051367;28;20029;-78
2021/01/01 10:01:31;;;;;;;11.40;6.65;;;;;;;2.86;88.74;100414.19;5048887;28;20413;-77
2021/01/01 10:03:57;;;;;;;12.88;6.55;;;;;;;2.84;88.65;100414.44;5027994;28;20472;-79
2021/01/01 10:06:23;;;;;;;15.23;7.75;;;;;;;2.82;88.66;100421.09;5041151;28;20048;-78
2021/01/01 10:08:48;;;;;;;11.32;6.78;;;;;;;2.84;88.90;100419.00;5045099;28;20036;-77
2021/01/01 10:11:14;;;;;;;13.77;7.53;;;;;;;2.85;88.79;100415.25;5061154;28;20410;-78
2021/01/01 10:13:39;;;;;;;14.95;7.45;;;;;;;2.86;88.39;100411.50;5064461;28;20060;-78
2021/01/01 10:16:08;;;;;;;12.93;7.57;;;;;;;2.89;89.09;100414.56;5050565;28;20112;-78
2021/01/01 10:18:33;;;;;;;11.25;7.03;;;;;;;2.93;88.47;100414.91;5084830;28;20465;-78
2021/01/01 10:20:58;;;;;;;15.57;8.13;;;;;;;2.98;88.88;100417.72;5050860;28;20120;-78
2021/01/01 10:23:24;;;;;;;12.48;7.45;;;;;;;3.03;88.46;100415.16;5050355;28;20090;-78
2021/01/01 10:25:50;;;;;;;13.23;7.68;;;;;;;3.10;88.54;100417.72;5047428;28;20509;-78
2021/01/01 10:28:15;;;;;;;14.20;8.30;;;;;;;3.17;88.94;100420.31;5051019;28;20029;-78
2021/01/01 10:30:42;;;;;;;13.13;7.18;;;;;;;3.24;88.84;100418.31;5049195;28;20017;-79
2021/01/01 10:33:07;;;;;;;13.43;7.25;;;;;;;3.27;88.51;100416.00;5050695;28;20063;-78
2021/01/01 10:35:32;;;;;;;13.43;7.80;;;;;;;3.30;88.46;100420.06;5048380;28;20052;-78
2021/01/01 10:37:58;;;;;;;12.63;7.38;;;;;;;3.36;88.47;100416.44;5048672;28;20029;-77
2021/01/01 10:40:23;;;;;;;14.77;8.02;;;;;;;3.40;88.00;100414.91;5048458;28;20032;-78
2021/01/01 10:42:49;;;;;;;13.43;7.40;;;;;;;3.49;88.39;100413.53;5051162;28;20051;-78
2021/01/01 10:45:14;;;;;;;13.70;7.25;;;;;;;3.58;88.53;100418.53;5051281;28;20029;-79
2021/01/01 10:47:40;;;;;;;14.68;7.68;;;;;;;3.66;88.17;100410.09;5049305;28;20037;-78
2021/01/01 10:50:06;;;;;;;14.70;7.90;;;;;;;3.75;88.32;100412.16;5051149;28;20470;-78
2021/01/01 10:52:32;;;;;;;14.13;7.00;;;;;;;3.83;88.28;100416.38;5030644;28;20154;-78
2021/01/01 10:54:58;;;;;;;13.68;7.20;;;;;;;3.92;88.37;100414.94;5051204;28;20017;-78
2021/01/01 10:57:23;;;;;;;16.33;7.18;;;;;;;3.96;88.56;100410.72;5083138;28;20031;-79
2021/01/01 10:59:48;;;;;;;15.88;8.50;;;;;;;3.96;88.33;100413.41;5048382;28;20029;-79
2021/01/01 11:02:14;;;;;;;12.65;7.53;;;;;;;3.92;88.11;100406.84;5048444;28;20024;-78
2021/01/01 11:04:39;;;;;;;16.25;8.18;;;;;;;3.88;87.77;100405.69;5075612;28;20025;-77
2021/01/01 11:07:05;;;;;;;13.60;7.43;;;;;;;3.82;88.02;100409.34;5046598;28;20035;-79
2021/01/01 11:09:30;;;;;;;13.07;7.55;;;;;;;3.75;88.14;100412.16;5051444;28;20029;-78
2021/01/01 11:11:56;;;;;;;10.65;7.03;;;;;;;3.71;88.48;100404.78;5049052;28;20098;-79
2021/01/01 11:14:37;;;;;;;10.82;6.97;;;;;;;3.67;87.99;100404.44;5049573;28;20028;-78
2021/01/01 12:25:47;;;;;;;13.60;8.88;;;;;;;4.14;87.81;100416.97;5032512;28;20029;-78
2021/01/01 12:28:14;;;;;;;14.45;8.93;;;;;;;4.14;87.89;100408.88;5064403;28;20535;-78